Biloxi, MS

8:49 AM CST on November 27, 2014 (GMT -0600)
Espana Woods Subdivision | Change Station
CLOSE
Current Station
Personal Weather Station
Location: Ocean Springs, MS
Elevation: 26 ft
Nearby Weather Stations

Elev 26 ft 30.44 °N, 88.83 °W | Updated 6 seconds ago

Clear
Clear
48.9 °F
Feels Like 48 °F
N
3.6
Wind Variable Wind from East
Gusts 3.6 mph

Today
High -- | Low -- °F
--% Chance of Precip.
Yesterday
High -- | Low -- °F
Precip. -- in
6:31 AM 4:54 PM
Waxing Crescent, 30% visible
Pressure 30.41 in
Visibility 10.0 miles
Clouds Clear
Windchill 48 °F
Dew Point 39 °F
Humidity 68%
Rainfall 0.03 in
Snow Depth Not available.
UV 1 out of 12
Pollen 3.50 out of 12
Air Quality Not available.
Flu Activity Not available.
METAR KBIX 271358Z AUTO VRB04KT 10SM CLR 09/03 A3040 RMK AO2 SLP297 T00910031

More Conditions Fewer Conditions

Pressure 30.41 in
Visibility 10.0 miles
Clouds Clear
Windchill 48 °F
Dew Point 39 °F
Humidity 68%
Rainfall 0.03 in
Snow Depth Not available.
UV 1 out of 12
Pollen 3.50 out of 12
Air Quality Not available.
Flu Activity Not available.
METAR KBIX 271358Z AUTO VRB04KT 10SM CLR 09/03 A3040 RMK AO2 SLP297 T00910031

More Conditions Fewer Conditions

10-Day Weather Forecast

Almanac

Astronomy

Nov. 27, 2014 Rise Set
Actual Time
Civil Twilight
Nautical Twilight
Astronomical Twilight
Moon
Length of Visible Light
Length of Day
Tomorrow will be .
, % of the Moon is Illuminated

Today's Extremes

State Highs State Lows

Community

WunderPhotos

Upload Photos

1,774,005 photos uploaded!

WunderBlogs® & News

Nearby

Air Quality

  Air Quality AQ Index Pollutant
Not available.

Snow Depth

Station Depth Elevation

Earthquake Activity

City Distance Mag. Time & Date
Minimum magnitude displayed is 2.5.

Coastal Water Temperatures

Place Temperature

Nearby Weather Stations